BIVO/VPN METAR and TAF weather

Enter ICAO airport designator
Station Type Date Time Source
BIVO METAR 2022/08/12 15:00 UTC NOAA

BIVO 121500Z 30015KT 9999 FEW030 SCT050 15/08 Q1006


Station Type Date Time Source
BIVO Decoded METAR 2022/08/12 15:00 UTC NOAA

Skjaldthingsstadir, Iceland (BIVO) 65-42N 014-49W 48M
Aug 12, 2022 - 11:00 AM EDT / 2022.08.12 1500 UTC
Wind: from the WNW (300 degrees) at 17 MPH (15 KT):0
Visibility: greater than 7 mile(s):0
Sky conditions: partly cloudy
Temperature: 59 F (15 C)
Dew Point: 46 F (8 C)
Relative Humidity: 62%
Pressure (altimeter): 29.71 in. Hg (1006 hPa)
ob: BIVO 121500Z 30015KT 9999 FEW030 SCT050 15/08 Q1006
cycle: 15

Station Type Date Time Source
BIVO TAF UTC NOAA

Error!

Example: see airport list